Buchanan, North Dakota
Current Conditions -  °F | °C
As of 4:56 AM on Thursday 18 Dec 2014 (Local Time) from KJMS Reporting Station
Light Snow Light Snow  
Wind Chill:   Ceiling: 7500
Heat Index: 13°   Visibility: 8mi
Dew Point:   Wind: 7mph
Humidity: 84%   Direction: 130°SE
Pressure: 30.17"   Gusts: NA
Location:  47.06°N, 98.83°W
Report Text: KJMS 181056Z AUTO 13006KT 8SM -SN SCT050 OVC075 M11/M13 A3017 RMK AO2 SNB45 SLP250 P0000 T11061128
Loading
Personal Weather Stations






























Interactive Weather Map New forecast layout! Learn more

10-Day Weather Forecast

Advertisements
Track Severe Weather on mobile